createdAt,value
2023-03-07T00:01:33.231Z,0.00
2023-03-07T00:06:33.125Z,0.00
2023-03-07T00:11:33.106Z,0.00
2023-03-07T00:16:33.040Z,0.00
2023-03-07T00:21:33.326Z,0.00
2023-03-07T00:26:32.884Z,0.00
2023-03-07T00:31:32.868Z,0.00
2023-03-07T00:36:32.753Z,0.00
2023-03-07T00:41:33.641Z,0.00
2023-03-07T00:46:32.678Z,0.00
2023-03-07T00:51:32.575Z,0.00
2023-03-07T00:56:32.510Z,0.00
2023-03-07T01:01:32.455Z,0.00
2023-03-07T01:06:59.369Z,0.00
2023-03-07T01:11:51.695Z,0.00
2023-03-07T01:16:51.701Z,0.00
2023-03-07T01:21:51.594Z,0.00
2023-03-07T01:26:51.509Z,0.00
2023-03-07T01:31:51.494Z,0.00
2023-03-07T01:36:51.448Z,0.00
2023-03-07T01:41:51.332Z,0.00
2023-03-07T01:46:51.251Z,0.00
2023-03-07T01:51:51.229Z,0.00
2023-03-07T01:56:51.105Z,0.00
2023-03-07T02:01:51.057Z,0.00
2023-03-07T02:06:50.963Z,0.00
2023-03-07T02:11:50.944Z,0.00
2023-03-07T02:16:50.845Z,0.00
2023-03-07T02:21:50.806Z,0.00
2023-03-07T02:26:50.706Z,0.00
2023-03-07T02:31:50.664Z,0.00
2023-03-07T02:36:50.589Z,0.00
2023-03-07T02:41:50.586Z,0.00
2023-03-07T02:46:50.480Z,0.00
2023-03-07T02:51:50.413Z,0.00
2023-03-07T02:56:50.307Z,0.00
2023-03-07T03:01:50.332Z,0.00
2023-03-07T03:06:50.241Z,0.00
2023-03-07T03:11:50.185Z,0.00
2023-03-07T03:16:50.078Z,0.00
2023-03-07T03:21:50.041Z,0.00
2023-03-07T03:26:49.974Z,0.00
2023-03-07T03:31:49.903Z,0.00
2023-03-07T03:36:49.826Z,0.00
2023-03-07T03:41:49.788Z,0.00
2023-03-07T03:46:49.731Z,0.00
2023-03-07T03:51:49.669Z,0.00
2023-03-07T03:56:49.575Z,0.00
2023-03-07T04:01:49.618Z,0.00
2023-03-07T04:06:49.457Z,0.00
2023-03-07T04:11:49.391Z,0.00
2023-03-07T04:16:49.368Z,0.00
2023-03-07T04:21:49.283Z,0.00
2023-03-07T04:26:49.173Z,0.00
2023-03-07T04:31:49.222Z,0.00
2023-03-07T04:36:49.056Z,0.00
2023-03-07T04:41:49.001Z,0.00
2023-03-07T04:46:49.882Z,0.00
2023-03-07T04:51:48.889Z,0.00
2023-03-07T04:56:48.783Z,0.00
2023-03-07T05:01:48.729Z,0.00
2023-03-07T05:06:48.665Z,0.00
2023-03-07T05:11:48.632Z,0.00
2023-03-07T05:17:20.922Z,0.00
2023-03-07T05:22:13.340Z,0.00
2023-03-07T05:27:13.365Z,0.00
2023-03-07T05:32:13.327Z,0.00
2023-03-07T05:37:13.155Z,0.00
2023-03-07T05:42:13.098Z,0.00
2023-03-07T05:47:13.045Z,4.00
2023-03-07T05:52:12.956Z,4.00
2023-03-07T05:57:12.907Z,8.00
2023-03-07T06:02:12.838Z,20.00
2023-03-07T06:07:12.761Z,28.00
2023-03-07T06:12:12.692Z,48.00
2023-03-07T06:17:12.646Z,68.00
2023-03-07T06:22:12.580Z,76.00
2023-03-07T06:27:12.508Z,88.00
2023-03-07T06:32:12.485Z,100.00
2023-03-07T06:37:12.366Z,148.00
2023-03-07T06:42:12.319Z,196.00
2023-03-07T06:47:12.302Z,264.00
2023-03-07T06:52:12.146Z,304.00
2023-03-07T06:57:12.147Z,400.00
2023-03-07T07:02:12.129Z,348.00
2023-03-07T07:07:11.993Z,352.00
2023-03-07T07:12:11.920Z,468.00
2023-03-07T07:17:11.882Z,452.00
2023-03-07T07:22:11.851Z,548.00
2023-03-07T07:27:12.654Z,784.00
2023-03-07T07:32:11.857Z,900.00
2023-03-07T07:37:11.609Z,932.00
2023-03-07T07:42:11.575Z,808.00
2023-03-07T07:47:11.497Z,880.00
2023-03-07T07:52:11.511Z,1028.00
2023-03-07T07:57:11.349Z,1048.00
2023-03-07T08:02:11.359Z,1264.00
2023-03-07T08:07:11.243Z,1296.00
2023-03-07T08:12:11.164Z,1372.00
2023-03-07T08:17:11.091Z,1160.00
2023-03-07T08:22:11.186Z,1128.00
2023-03-07T08:27:11.638Z,1224.00
2023-03-07T08:32:12.130Z,1196.00
2023-03-07T08:37:10.846Z,992.00
2023-03-07T08:42:10.772Z,988.00
2023-03-07T08:47:10.703Z,1124.00
2023-03-07T08:52:10.679Z,928.00
2023-03-07T08:57:10.577Z,916.00
2023-03-07T09:02:10.514Z,748.00
2023-03-07T09:07:10.423Z,880.00
2023-03-07T09:12:10.370Z,792.00
2023-03-07T09:17:10.347Z,908.00
2023-03-07T09:22:10.225Z,1056.00
2023-03-07T09:27:10.169Z,1044.00
2023-03-07T09:32:10.137Z,1212.00
2023-03-07T09:37:10.026Z,1028.00
2023-03-07T09:42:09.952Z,936.00
2023-03-07T09:47:09.913Z,968.00
2023-03-07T09:52:10.795Z,1064.00
2023-03-07T09:57:09.772Z,1332.00
2023-03-07T10:02:09.665Z,1136.00
2023-03-07T10:07:09.675Z,1276.00
2023-03-07T10:12:09.550Z,1832.00
2023-03-07T10:17:09.512Z,2052.00
2023-03-07T10:22:09.449Z,1896.00
2023-03-07T10:27:09.386Z,1580.00
2023-03-07T10:32:09.464Z,1944.00
2023-03-07T10:37:09.567Z,2124.00
2023-03-07T10:42:09.160Z,1340.00
2023-03-07T10:47:09.219Z,1208.00
2023-03-07T10:52:09.027Z,1288.00
2023-03-07T10:57:08.963Z,1296.00
2023-03-07T11:02:08.896Z,1324.00
2023-03-07T11:07:08.832Z,1216.00
2023-03-07T11:12:08.753Z,928.00
2023-03-07T11:17:08.700Z,856.00
2023-03-07T11:22:08.633Z,960.00
2023-03-07T11:27:08.657Z,1172.00
2023-03-07T11:32:08.528Z,1496.00
2023-03-07T11:37:08.773Z,1748.00
2023-03-07T11:42:08.886Z,1908.00
2023-03-07T11:47:08.335Z,1480.00
2023-03-07T11:52:08.222Z,1400.00
2023-03-07T11:57:08.177Z,1100.00
2023-03-07T12:02:08.094Z,1124.00
2023-03-07T12:07:08.042Z,1524.00
2023-03-07T12:12:07.957Z,1400.00
2023-03-07T12:17:07.918Z,1400.00
2023-03-07T12:22:07.854Z,1268.00
2023-03-07T12:27:07.787Z,1220.00
2023-03-07T12:32:07.916Z,1564.00
2023-03-07T12:37:07.687Z,1196.00
2023-03-07T12:42:07.534Z,1104.00
2023-03-07T12:47:07.531Z,1132.00
2023-03-07T12:52:07.492Z,1776.00
2023-03-07T12:57:07.404Z,1600.00
2023-03-07T13:02:07.295Z,1320.00
2023-03-07T13:07:07.283Z,1192.00
2023-03-07T13:12:07.179Z,1108.00
2023-03-07T13:17:07.121Z,1028.00
2023-03-07T13:22:07.071Z,1072.00
2023-03-07T13:27:06.992Z,1012.00
2023-03-07T13:32:06.926Z,716.00
2023-03-07T13:37:06.862Z,832.00
2023-03-07T13:42:06.771Z,908.00
2023-03-07T13:47:06.733Z,1036.00
2023-03-07T13:52:06.770Z,1160.00
2023-03-07T13:57:06.578Z,1300.00
2023-03-07T14:02:06.537Z,1340.00
2023-03-07T14:07:06.480Z,1568.00
2023-03-07T14:12:06.426Z,1244.00
2023-03-07T14:17:06.338Z,1684.00
2023-03-07T14:22:06.298Z,1404.00
2023-03-07T14:27:06.222Z,900.00
2023-03-07T14:32:06.175Z,748.00
2023-03-07T14:37:06.080Z,776.00
2023-03-07T14:42:06.026Z,664.00
2023-03-07T14:47:05.955Z,748.00
2023-03-07T14:52:05.952Z,604.00
2023-03-07T14:57:05.827Z,616.00
2023-03-07T15:02:06.576Z,460.00
2023-03-07T15:07:05.759Z,472.00
2023-03-07T15:12:05.618Z,508.00
2023-03-07T15:17:05.522Z,488.00
2023-03-07T15:22:05.529Z,400.00
2023-03-07T15:27:05.423Z,388.00
2023-03-07T15:32:05.352Z,464.00
2023-03-07T15:37:05.288Z,520.00
2023-03-07T15:42:05.231Z,432.00
2023-03-07T15:47:05.162Z,392.00
2023-03-07T15:52:05.044Z,292.00
2023-03-07T15:57:05.090Z,240.00
2023-03-07T16:02:04.974Z,240.00
2023-03-07T16:07:04.866Z,192.00
2023-03-07T16:12:04.814Z,208.00
2023-03-07T16:17:04.791Z,208.00
2023-03-07T16:22:04.660Z,116.00
2023-03-07T16:27:04.614Z,116.00
2023-03-07T16:32:04.797Z,88.00
2023-03-07T16:37:19.474Z,76.00
2023-03-07T16:42:04.420Z,44.00
2023-03-07T16:47:04.417Z,44.00
2023-03-07T16:52:06.752Z,28.00
2023-03-07T16:57:04.220Z,24.00
2023-03-07T17:02:04.173Z,16.00
2023-03-07T17:07:05.152Z,8.00
2023-03-07T17:12:04.006Z,8.00
2023-03-07T17:17:04.075Z,8.00
2023-03-07T17:22:03.977Z,4.00
2023-03-07T17:27:03.824Z,0.00
2023-03-07T17:32:03.896Z,0.00
2023-03-07T17:37:03.702Z,0.00
2023-03-07T17:42:03.708Z,0.00
2023-03-07T17:47:03.635Z,0.00
2023-03-07T17:52:03.538Z,0.00
2023-03-07T17:57:03.512Z,0.00
2023-03-07T18:02:03.461Z,0.00
2023-03-07T18:07:03.366Z,0.00
2023-03-07T18:12:03.289Z,0.00
2023-03-07T18:17:03.229Z,0.00
2023-03-07T18:22:03.193Z,0.00
2023-03-07T18:27:03.070Z,0.00
2023-03-07T18:32:03.125Z,0.00
2023-03-07T18:37:03.907Z,0.00
2023-03-07T18:42:02.870Z,0.00
2023-03-07T18:47:02.964Z,0.00
2023-03-07T18:52:02.760Z,0.00
2023-03-07T18:57:02.677Z,0.00
2023-03-07T19:02:02.686Z,0.00
2023-03-07T19:07:02.582Z,0.00
2023-03-07T19:12:02.492Z,0.00
2023-03-07T19:17:02.471Z,0.00
2023-03-07T19:22:02.386Z,0.00
2023-03-07T19:27:02.306Z,0.00
2023-03-07T19:32:02.334Z,0.00
2023-03-07T19:37:03.077Z,0.00
2023-03-07T19:42:02.128Z,0.00
2023-03-07T19:47:02.017Z,0.00
2023-03-07T19:52:01.986Z,0.00
2023-03-07T19:57:01.966Z,0.00
2023-03-07T20:02:01.906Z,0.00
2023-03-07T20:07:01.784Z,0.00
2023-03-07T20:12:01.744Z,0.00
2023-03-07T20:17:01.679Z,0.00
2023-03-07T20:22:01.649Z,0.00
2023-03-07T20:27:01.537Z,0.00
2023-03-07T20:32:01.504Z,0.00
2023-03-07T20:37:01.373Z,0.00
2023-03-07T20:42:01.352Z,0.00
2023-03-07T20:47:01.313Z,0.00
2023-03-07T20:52:01.227Z,0.00
2023-03-07T20:57:01.196Z,0.00
2023-03-07T21:02:01.186Z,0.00
2023-03-07T21:07:01.003Z,0.00
2023-03-07T21:12:00.968Z,0.00
2023-03-07T21:17:00.893Z,0.00
2023-03-07T21:22:00.832Z,0.00
2023-03-07T21:27:00.762Z,0.00
2023-03-07T21:32:00.714Z,0.00
2023-03-07T21:37:00.642Z,0.00
2023-03-07T21:42:00.541Z,0.00
2023-03-07T21:47:00.495Z,0.00
2023-03-07T21:52:00.435Z,0.00
2023-03-07T21:57:00.351Z,0.00
2023-03-07T22:02:00.361Z,0.00
2023-03-07T22:07:00.239Z,0.00
2023-03-07T22:12:00.244Z,0.00
2023-03-07T22:17:00.227Z,0.00
2023-03-07T22:22:00.077Z,0.00
2023-03-07T22:26:59.988Z,0.00
2023-03-07T22:31:59.971Z,0.00
2023-03-07T22:36:59.858Z,0.00
2023-03-07T22:41:59.774Z,0.00
2023-03-07T22:46:59.798Z,0.00
2023-03-07T22:51:59.647Z,0.00
2023-03-07T22:56:59.603Z,0.00
2023-03-07T23:01:59.548Z,0.00
2023-03-07T23:06:59.460Z,0.00
2023-03-07T23:11:59.367Z,0.00
2023-03-07T23:16:59.370Z,0.00
2023-03-07T23:21:59.272Z,0.00
2023-03-07T23:26:59.173Z,0.00
2023-03-07T23:31:59.143Z,0.00
2023-03-07T23:36:59.127Z,0.00
2023-03-07T23:41:59.011Z,0.00
2023-03-07T23:46:58.993Z,0.00
2023-03-07T23:51:58.866Z,0.00
2023-03-07T23:56:58.836Z,0.00
